createdAt,value
2022-09-26T00:04:59.391Z,2.9
2022-09-26T00:20:08.532Z,2.9
2022-09-26T00:35:17.935Z,2.8
2022-09-26T00:50:28.450Z,2.3
2022-09-26T01:05:39.074Z,2.7
2022-09-26T01:20:48.304Z,2.3
2022-09-26T01:35:58.338Z,3.6
2022-09-26T01:51:07.729Z,2.7
2022-09-26T02:06:16.914Z,2.2
2022-09-26T02:21:26.409Z,2.3
2022-09-26T02:36:35.727Z,2.4
2022-09-26T02:51:45.760Z,2.1
2022-09-26T03:06:57.886Z,2.2
2022-09-26T03:22:07.569Z,2.1
2022-09-26T03:37:16.567Z,2.3
2022-09-26T03:52:25.991Z,2.8
2022-09-26T04:07:35.480Z,2.7
2022-09-26T04:22:45.045Z,3.8
2022-09-26T04:37:56.887Z,4.2
2022-09-26T04:53:06.277Z,5.4
2022-09-26T05:08:15.804Z,5.8
2022-09-26T05:23:25.285Z,5.8
2022-09-26T05:38:34.994Z,5.1
2022-09-26T05:53:44.629Z,5.3
2022-09-26T06:08:57.542Z,4.4
2022-09-26T06:24:06.961Z,4.2
2022-09-26T06:39:17.117Z,4.2
2022-09-26T06:54:27.322Z,4.4
2022-09-26T07:09:37.310Z,4.3
2022-09-26T07:24:47.554Z,4.8
2022-09-26T07:40:02.107Z,7.3
2022-09-26T07:55:11.803Z,4.6
2022-09-26T08:11:49.719Z,4.9
2022-09-26T08:27:00.489Z,4.1
2022-09-26T08:42:10.605Z,4.5
2022-09-26T08:57:20.440Z,3.6
2022-09-26T09:12:32.631Z,3.8
2022-09-26T09:28:07.849Z,3.5
2022-09-26T09:43:19.012Z,3.8
2022-09-26T09:58:28.726Z,2.8
2022-09-26T10:13:38.704Z,2.7
2022-09-26T10:28:48.093Z,2.7
2022-09-26T10:43:58.740Z,2.4
2022-09-26T10:59:08.806Z,2.3
2022-09-26T11:14:18.006Z,2.3
2022-09-26T11:29:27.607Z,3.1
2022-09-26T11:44:37.407Z,2.4
2022-09-26T11:59:47.353Z,2.3
2022-09-26T12:14:59.337Z,2.3
2022-09-26T12:30:09.484Z,2.2
2022-09-26T12:45:19.554Z,2.4
2022-09-26T13:00:29.187Z,2.1
2022-09-26T13:15:38.711Z,2
2022-09-26T13:30:48.559Z,2.9
2022-09-26T13:45:58.930Z,2.3
2022-09-26T14:01:08.768Z,1.9
2022-09-26T14:16:18.480Z,1.6
2022-09-26T14:31:28.752Z,1.8
2022-09-26T14:46:39.332Z,2.4
2022-09-26T15:01:49.101Z,1.9
2022-09-26T15:16:59.342Z,1.8
2022-09-26T15:32:09.120Z,1.9
2022-09-26T15:47:18.463Z,1.9
2022-09-26T16:02:28.719Z,2.1
2022-09-26T16:17:38.023Z,2
2022-09-26T16:32:47.688Z,1.8
2022-09-26T16:47:59.127Z,2.1
2022-09-26T17:03:09.182Z,2.6
2022-09-26T17:18:18.323Z,2.5
2022-09-26T17:33:28.162Z,2
2022-09-26T17:48:37.390Z,2.7
2022-09-26T18:03:46.807Z,2.4
2022-09-26T18:19:07.394Z,4.3
2022-09-26T18:34:17.409Z,2.2
2022-09-26T18:49:26.731Z,2.5
2022-09-26T19:04:36.299Z,4.6
2022-09-26T19:19:45.842Z,2.7
2022-09-26T19:34:54.956Z,2.8
2022-09-26T19:50:04.791Z,2.7
2022-09-26T20:05:14.824Z,2.4
2022-09-26T20:20:24.520Z,2.4
2022-09-26T20:35:35.945Z,2.4
2022-09-26T20:50:45.529Z,2.2
2022-09-26T21:05:54.697Z,2.3
2022-09-26T21:21:04.433Z,2.8
2022-09-26T21:36:14.403Z,2.7
2022-09-26T21:51:23.985Z,2.6
2022-09-26T22:06:33.667Z,2.5
2022-09-26T22:21:42.560Z,2.8
2022-09-26T22:36:51.493Z,2.3
2022-09-26T22:52:00.595Z,2.7
2022-09-26T23:07:09.829Z,2.3
2022-09-26T23:22:50.364Z,2.3
2022-09-26T23:38:00.699Z,2.2
2022-09-26T23:53:10.545Z,2.5
